Huntersville, Minnesota
Current Conditions -  °F | °C
As of 5:53 PM on Saturday 25 Oct 2014 (Local Time) from KPKD Reporting Station
Clear Clear  
Wind Chill: 53°   Ceiling: Unl
Heat Index: 53°   Visibility: 10mi
Dew Point: 21°   Wind: 12mph
Humidity: 29%   Direction: 320°NW
Pressure: 30.04"   Gusts: NA
Location:  46.7591°N, 94.9748°W
Report Text: KPKD 252253Z AUTO 32010KT 10SM CLR 12/M06 A3004 RMK AO2 SLP182 T01171061 TSNO $
Loading
Personal Weather Stations






























Interactive Weather Map
Tropical Storm Tracking
New forecast layout! Learn more

10-Day Weather Forecast

Advertisements
Track Severe Weather on mobile